Time;durP1;ratioP1;P1;durP2;ratioP2;P2;SDS_P1;SDS_P2;PMS_P1;PMS_P2;Temp;Humidity;BMP_temperature;BMP_pressure;BME280_temperature;BME280_humidity;BME280_pressure;Samples;Min_cycle;Max_cycle;Signal;HPM_P1;HPM_P2
2021/12/07 00:01:40;;;;;;;32.57;14.53;;;3.20;73.80;;;;;;5033324;28;20108;-87
2021/12/07 00:04:06;;;;;;;;;;;3.20;73.80;;;;;;5034264;28;20033;-86
2021/12/07 00:06:32;;;;;;;30.97;13.70;;;3.20;73.90;;;;;;5033715;28;19909;-86
2021/12/07 00:08:58;;;;;;;33.67;14.60;;;3.20;73.50;;;;;;5034522;28;20473;-86
2021/12/07 00:11:25;;;;;;;;;;;3.20;73.60;;;;;;5033206;28;20143;-86
2021/12/07 00:13:52;;;;;;;35.45;14.93;;;3.20;73.80;;;;;;5037130;28;19935;-86
2021/12/07 00:16:19;;;;;;;38.77;15.57;;;3.20;73.50;;;;;;5036956;28;20083;-86
2021/12/07 00:18:45;;;;;;;35.30;15.53;;;3.10;73.60;;;;;;5036915;28;20606;-86
2021/12/07 00:21:11;;;;;;;34.80;15.53;;;3.10;73.70;;;;;;5036902;28;20110;-86
2021/12/07 00:23:37;;;;;;;;;;;3.10;73.80;;;;;;5037135;28;20033;-86
2021/12/07 00:26:04;;;;;;;32.20;14.93;;;3.10;73.90;;;;;;5036544;28;19909;-85
2021/12/07 00:28:29;;;;;;;33.90;16.10;;;3.10;73.60;;;;;;5036311;28;20030;-88
2021/12/07 00:30:57;;;;;;;;;;;3.10;73.60;;;;;;5037096;28;20032;-86
2021/12/07 00:35:52;;;;;;;33.97;15.37;;;3.10;73.50;;;;;;5037753;28;20367;-85
2021/12/07 00:38:23;;;;;;;33.90;15.40;;;3.00;73.60;;;;;;5035744;28;20029;-86
2021/12/07 00:40:49;;;;;;;35.57;17.07;;;3.00;73.80;;;;;;5035768;28;20029;-86
2021/12/07 00:43:16;;;;;;;35.30;16.30;;;3.00;73.80;;;;;;5036398;28;20117;-85
2021/12/07 00:45:46;;;;;;;35.63;15.60;;;3.00;73.90;;;;;;5036008;28;20102;-87
2021/12/07 00:48:16;;;;;;;37.63;17.00;;;3.00;73.90;;;;;;5036403;28;20044;-86
2021/12/07 00:50:44;;;;;;;37.63;16.60;;;3.00;73.90;;;;;;5036186;28;20104;-84
2021/12/07 00:53:11;;;;;;;36.10;17.07;;;3.00;73.90;;;;;;5036251;28;20032;-86
2021/12/07 00:55:42;;;;;;;32.50;15.77;;;3.00;74.00;;;;;;5035513;28;20025;-86
2021/12/07 00:58:21;;;;;;;36.33;16.80;;;3.00;74.00;;;;;;5034649;28;20041;-85
2021/12/07 01:00:56;;;;;;;33.23;15.97;;;3.00;74.00;;;;;;5034846;28;20029;-85
2021/12/07 01:03:23;;;;;;;39.17;16.57;;;3.00;74.00;;;;;;5034975;28;20036;-85
2021/12/07 01:05:53;;;;;;;37.90;16.97;;;3.00;74.00;;;;;;5034884;28;20079;-86
2021/12/07 01:09:09;;;;;;;31.83;14.43;;;3.00;74.00;;;;;;5035308;28;20025;-86
2021/12/07 01:24:48;;;;;;;33.73;13.87;;;3.00;73.90;;;;;;5036044;28;20090;-85
2021/12/07 01:27:16;;;;;;;;;;;3.00;74.00;;;;;;5037555;28;20025;-86
2021/12/07 01:29:44;;;;;;;29.05;13.30;;;3.00;74.00;;;;;;5035586;28;19913;-86
2021/12/07 01:32:34;;;;;;;28.27;13.07;;;3.10;73.80;;;;;;5035534;28;20013;-86
2021/12/07 02:01:48;;;;;;;32.17;13.57;;;3.00;73.80;;;;;;5037046;28;20370;-86
2021/12/07 02:04:13;;;;;;;;;;;2.90;73.80;;;;;;5035970;28;20029;-86
2021/12/07 02:06:39;;;;;;;32.60;12.90;;;2.90;73.90;;;;;;5035033;28;19915;-86
2021/12/07 02:09:06;;;;;;;;;;;2.90;73.60;;;;;;5034920;28;20026;-85
2021/12/07 02:11:34;;;;;;;32.88;13.25;;;2.90;73.70;;;;;;5035585;28;19920;-85
2021/12/07 02:16:29;;;;;;;;;;;2.80;73.60;;;;;;5036878;28;20122;-87
2021/12/07 02:18:55;;;;;;;34.07;13.30;;;2.80;73.80;;;;;;5035267;28;20000;-86
2021/12/07 02:21:20;;;;;;;;;;;2.80;73.60;;;;;;5035520;28;20053;-86
2021/12/07 02:23:47;;;;;;;33.40;12.40;;;2.80;73.80;;;;;;5035087;28;21478;-86
2021/12/07 02:26:12;;;;;;;36.70;13.87;;;2.70;73.60;;;;;;5033840;28;20056;-87
2021/12/07 02:28:40;;;;;;;;;;;2.70;73.80;;;;;;5034783;28;20405;-84
2021/12/07 02:31:07;;;;;;;33.58;12.80;;;2.70;74.00;;;;;;5035163;28;19909;-85
2021/12/07 02:33:34;;;;;;;38.43;14.07;;;2.70;73.70;;;;;;5034967;28;20453;-86
2021/12/07 02:35:59;;;;;;;40.50;14.37;;;2.70;73.80;;;;;;5034935;28;20033;-86
2021/12/07 02:38:25;;;;;;;33.95;14.30;;;2.70;74.00;;;;;;5035079;28;20052;-85
2021/12/07 02:40:50;;;;;;;;;;;2.70;74.00;;;;;;5035257;28;20033;-86
2021/12/07 02:43:16;;;;;;;37.23;14.23;;;2.80;74.10;;;;;;5036947;28;19909;-85
2021/12/07 02:45:45;;;;;;;;;;;2.80;73.80;;;;;;5035657;28;20025;-86
2021/12/07 02:48:10;;;;;;;35.77;12.90;;;2.80;73.90;;;;;;5035170;28;19909;-85
2021/12/07 02:50:36;;;;;;;;;;;2.80;73.60;;;;;;5035107;28;20031;-86
2021/12/07 02:53:09;;;;;;;36.60;13.90;;;2.80;73.80;;;;;;5034819;28;19908;-86
2021/12/07 02:55:35;;;;;;;46.67;15.03;;;2.70;73.50;;;;;;5034828;28;20486;-86
2021/12/07 02:58:00;;;;;;;;;;;2.70;73.70;;;;;;5035387;28;20056;-85
2021/12/07 03:00:34;;;;;;;42.87;13.80;;;2.70;73.90;;;;;;5035235;28;20320;-86
2021/12/07 03:03:06;;;;;;;40.10;13.83;;;2.70;73.70;;;;;;5034844;28;20029;-86
2021/12/07 03:05:50;;;;;;;44.67;15.37;;;2.60;73.90;;;;;;5034721;28;20014;-86
2021/12/07 03:27:15;;;;;;;42.57;15.60;;;2.60;74.20;;;;;;5023148;28;20557;-86
2021/12/07 03:29:40;;;;;;;;;;;2.60;74.30;;;;;;5034917;28;20057;-86
2021/12/07 03:32:06;;;;;;;39.43;14.13;;;2.60;74.30;;;;;;5035113;28;19909;-85
2021/12/07 03:34:32;;;;;;;37.53;13.40;;;2.60;74.20;;;;;;5034098;28;20041;-86
2021/12/07 03:36:58;;;;;;;43.17;14.93;;;2.60;74.30;;;;;;5034643;28;20397;-86
2021/12/07 03:39:23;;;;;;;;;;;2.60;74.40;;;;;;5035990;28;20536;-86
2021/12/07 03:41:49;;;;;;;39.57;13.53;;;2.60;74.50;;;;;;5033898;28;19913;-86
2021/12/07 03:44:14;;;;;;;38.72;15.27;;;2.60;74.20;;;;;;5034834;28;20040;-87
2021/12/07 03:46:40;;;;;;;34.00;12.70;;;2.60;74.30;;;;;;5033995;28;20037;-86
2021/12/07 03:49:06;;;;;;;40.20;15.57;;;2.60;74.40;;;;;;5037067;28;20026;-86
2021/12/07 03:51:31;;;;;;;49.60;16.13;;;2.60;74.50;;;;;;5037434;28;20025;-86
2021/12/07 03:53:57;;;;;;;;;;;2.60;74.50;;;;;;5037699;28;20029;-85
2021/12/07 03:56:22;;;;;;;44.40;14.83;;;2.70;74.60;;;;;;5037940;28;19912;-86
2021/12/07 03:58:48;;;;;;;;;;;2.70;74.20;;;;;;5038281;28;20095;-86
2021/12/07 04:01:14;;;;;;;35.87;12.73;;;2.70;74.40;;;;;;5037477;28;19909;-87
2021/12/07 04:03:41;;;;;;;;;;;2.70;74.20;;;;;;5038195;28;20040;-86
2021/12/07 04:06:07;;;;;;;;;;;2.60;74.30;;;;;;5039514;28;20024;-85
2021/12/07 04:08:33;;;;;;;;;;;2.70;74.30;;;;;;5038171;28;19948;-85
2021/12/07 04:10:59;;;;;;;;;;;2.60;74.30;;;;;;5037394;28;19913;-86
2021/12/07 04:13:28;;;;;;;;;;;2.60;74.30;;;;;;5037510;28;20328;-86
2021/12/07 04:15:54;;;;;;;;;;;2.60;74.30;;;;;;5037494;28;20481;-86
2021/12/07 04:18:20;;;;;;;;;;;2.70;74.30;;;;;;5037934;28;19917;-86
2021/12/07 04:20:48;;;;;;;;;;;2.70;74.20;;;;;;5037646;28;19987;-86
2021/12/07 04:23:13;;;;;;;;;;;2.70;74.20;;;;;;5037632;28;19909;-86
2021/12/07 04:25:39;;;;;;;;;;;2.70;74.10;;;;;;5037402;28;19909;-86
2021/12/07 04:28:05;;;;;;;;;;;2.70;74.10;;;;;;5037348;28;19908;-86
2021/12/07 04:30:33;;;;;;;;;;;2.80;74.00;;;;;;5036241;28;19906;-86
2021/12/07 04:33:00;;;;;;;;;;;2.70;74.00;;;;;;5037140;28;19905;-85
2021/12/07 04:35:25;;;;;;;;;;;2.70;74.00;;;;;;5037268;28;19940;-85
2021/12/07 04:37:51;;;;;;;;;;;2.70;73.90;;;;;;5038649;28;19913;-86
2021/12/07 04:40:19;;;;;;;;;;;2.70;73.90;;;;;;5037496;28;20008;-86
2021/12/07 04:42:45;;;;;;;;;;;2.70;74.00;;;;;;5037263;28;19913;-86
2021/12/07 04:45:22;;;;;;;;;;;2.70;74.00;;;;;;5037648;28;19924;-86
2021/12/07 04:48:07;;;;;;;;;;;2.70;73.90;;;;;;5039122;28;19909;-86
2021/12/07 04:58:35;;;;;;;;;;;2.70;73.90;;;;;;5038348;28;20008;-86
2021/12/07 05:01:06;;;;;;;;;;;2.70;73.80;;;;;;5036968;28;19917;-86
2021/12/07 05:03:31;;;;;;;;;;;2.70;73.80;;;;;;5037177;28;19913;-85
2021/12/07 05:05:57;;;;;;;;;;;2.70;73.80;;;;;;5036760;28;20053;-86
2021/12/07 05:08:44;;;;;;;;;;;2.70;73.80;;;;;;5037125;28;19931;-86
2021/12/07 05:18:41;;;;;;;;;;;2.70;73.80;;;;;;5037302;28;19979;-87
2021/12/07 05:40:18;;;;;;;;;;;2.80;73.60;;;;;;5004825;28;19913;-86
2021/12/07 05:42:44;;;;;;;;;;;2.80;73.60;;;;;;5036921;28;19912;-86
2021/12/07 05:45:12;;;;;;;;;;;2.70;73.60;;;;;;5035549;28;20333;-86
2021/12/07 05:47:37;;;;;;;;;;;2.70;73.60;;;;;;5019558;28;19959;-86
2021/12/07 05:50:04;;;;;;;;;;;2.70;73.60;;;;;;5035786;28;19910;-86
2021/12/07 05:52:29;;;;;;;;;;;2.70;73.60;;;;;;5035305;28;19916;-87
2021/12/07 05:54:55;;;;;;;;;;;2.70;73.60;;;;;;5035891;28;19909;-85
2021/12/07 05:57:21;;;;;;;;;;;2.70;73.60;;;;;;5035421;28;19950;-87
2021/12/07 05:59:46;;;;;;;;;;;2.60;73.60;;;;;;5035322;28;20016;-86
2021/12/07 06:02:12;;;;;;;;;;;2.70;73.60;;;;;;5035650;28;19935;-86
2021/12/07 06:04:37;;;;;;;;;;;2.60;73.60;;;;;;5035543;28;19995;-87
2021/12/07 06:07:04;;;;;;;;;;;2.60;73.70;;;;;;5035466;28;20270;-87
2021/12/07 06:09:29;;;;;;;;;;;2.60;73.70;;;;;;5028398;28;19909;-86
2021/12/07 06:11:57;;;;;;;;;;;2.60;73.70;;;;;;5035706;28;19937;-85
2021/12/07 06:14:29;;;;;;;;;;;2.60;73.70;;;;;;5036096;28;19963;-86
2021/12/07 06:16:55;;;;;;;;;;;2.60;73.70;;;;;;5036493;28;19909;-86
2021/12/07 06:19:20;;;;;;;;;;;2.50;73.70;;;;;;5035977;28;19915;-86
2021/12/07 06:21:46;;;;;;;;;;;2.60;73.80;;;;;;5035497;28;19941;-87
2021/12/07 06:24:11;;;;;;;;;;;2.60;73.80;;;;;;5036033;28;20316;-85
2021/12/07 06:26:37;;;;;;;;;;;2.60;73.80;;;;;;5037345;28;20273;-85
2021/12/07 06:29:03;;;;;;;;;;;2.50;73.70;;;;;;5035496;28;19999;-85
2021/12/07 06:31:28;;;;;;;;;;;2.60;73.70;;;;;;5035271;28;19959;-86
2021/12/07 06:33:54;;;;;;;;;;;2.60;73.80;;;;;;5035132;28;20320;-83
2021/12/07 06:36:19;;;;;;;;;;;2.60;73.70;;;;;;5034247;28;19909;-86
2021/12/07 06:38:47;;;;;;;;;;;2.60;73.70;;;;;;5035194;28;20281;-82
2021/12/07 06:41:13;;;;;;;;;;;2.60;73.70;;;;;;5034416;28;19916;-85
2021/12/07 06:44:01;;;;;;;;;;;2.50;73.70;;;;;;5027400;28;19960;-87
2021/12/07 06:46:34;;;;;;;;;;;2.60;73.70;;;;;;5035233;28;19963;-87
2021/12/07 06:48:59;;;;;;;;;;;2.50;73.70;;;;;;5023776;28;20466;-87
2021/12/07 06:51:25;;;;;;;;;;;2.50;73.70;;;;;;5036166;28;19949;-88
2021/12/07 06:53:53;;;;;;;;;;;2.50;73.70;;;;;;5030264;28;19913;-86
2021/12/07 06:56:19;;;;;;;;;;;2.50;73.70;;;;;;5035475;28;19909;-87
2021/12/07 06:58:44;;;;;;;;;;;2.50;73.80;;;;;;5036751;28;20062;-84
2021/12/07 07:01:11;;;;;;;;;;;2.50;73.80;;;;;;5034709;28;19912;-84
2021/12/07 07:03:38;;;;;;;;;;;2.50;73.80;;;;;;5035655;28;19925;-85
2021/12/07 07:06:03;;;;;;;;;;;2.50;73.80;;;;;;5026506;28;19909;-85
2021/12/07 07:08:29;;;;;;;;;;;2.60;73.80;;;;;;5035230;28;19909;-85
2021/12/07 07:10:55;;;;;;;;;;;2.50;73.70;;;;;;5033508;28;19935;-85
2021/12/07 07:13:20;;;;;;;;;;;2.50;73.70;;;;;;5035070;28;19912;-84
2021/12/07 07:15:46;;;;;;;;;;;2.50;73.80;;;;;;5036260;28;19917;-87
2021/12/07 07:18:27;;;;;;;;;;;2.50;73.70;;;;;;5034531;28;19913;-87
2021/12/07 07:21:14;;;;;;;;;;;2.50;73.70;;;;;;5035494;28;19913;-89
2021/12/07 07:23:41;;;;;;;;;;;2.50;73.60;;;;;;5039313;28;20254;-89
2021/12/07 07:26:07;;;;;;;;;;;2.50;73.60;;;;;;5036838;28;19909;-89
2021/12/07 07:28:33;;;;;;;;;;;2.40;73.70;;;;;;5039763;28;19909;-89
2021/12/07 07:30:59;;;;;;;;;;;2.50;73.70;;;;;;5039525;28;19920;-88
2021/12/07 07:33:25;;;;;;;;;;;2.40;73.70;;;;;;5038945;28;19913;-89
2021/12/07 07:35:51;;;;;;;;;;;2.50;73.70;;;;;;5039136;28;20007;-88
2021/12/07 07:38:17;;;;;;;;;;;2.50;73.70;;;;;;5045180;28;19913;-90
2021/12/07 07:40:45;;;;;;;;;;;2.50;73.70;;;;;;5044722;28;19911;-88
2021/12/07 07:43:11;;;;;;;;;;;2.50;73.60;;;;;;5047119;28;19972;-89
2021/12/07 07:45:36;;;;;;;;;;;2.50;73.60;;;;;;5042770;28;19963;-89
2021/12/07 07:48:02;;;;;;;;;;;2.50;73.60;;;;;;5039658;28;19913;-89
2021/12/07 07:50:27;;;;;;;;;;;2.40;73.60;;;;;;5039214;28;19909;-88
2021/12/07 07:52:53;;;;;;;;;;;2.50;73.60;;;;;;5039953;28;19911;-88
2021/12/07 07:55:18;;;;;;;;;;;2.50;73.60;;;;;;5039226;28;19913;-89
2021/12/07 07:57:45;;;;;;;;;;;2.50;73.60;;;;;;5039403;28;20370;-89
2021/12/07 08:00:15;;;;;;;;;;;2.50;73.60;;;;;;5039409;28;20384;-89
2021/12/07 08:02:41;;;;;;;;;;;2.50;73.60;;;;;;5038437;28;19912;-88
2021/12/07 08:05:07;;;;;;;;;;;2.60;73.60;;;;;;5039235;28;20336;-89
2021/12/07 08:07:32;;;;;;;;;;;2.60;73.50;;;;;;5038806;28;19956;-88
2021/12/07 08:09:58;;;;;;;;;;;2.60;73.50;;;;;;5039412;28;19916;-88
2021/12/07 08:12:23;;;;;;;;;;;2.60;73.50;;;;;;5038298;28;20296;-90
2021/12/07 08:14:49;;;;;;;;;;;2.60;73.50;;;;;;5038813;28;19967;-88
2021/12/07 08:17:14;;;;;;;;;;;2.60;73.50;;;;;;5038321;28;19959;-88
2021/12/07 08:19:40;;;;;;;;;;;2.70;73.50;;;;;;5039017;28;20262;-88
2021/12/07 08:22:05;;;;;;;;;;;2.70;73.50;;;;;;5038136;28;19909;-89
2021/12/07 08:24:31;;;;;;;;;;;2.80;73.40;;;;;;5038783;28;19916;-89
2021/12/07 08:26:56;;;;;;;;;;;2.80;73.40;;;;;;5038611;28;19905;-88
2021/12/07 08:29:22;;;;;;;;;;;2.80;73.40;;;;;;5038458;28;20305;-91
2021/12/07 08:31:48;;;;;;;;;;;2.80;73.40;;;;;;5039504;28;20404;-89
2021/12/07 08:34:13;;;;;;;;;;;2.90;73.30;;;;;;5037862;28;19932;-89
2021/12/07 08:36:42;;;;;;;;;;;2.90;73.20;;;;;;5039007;28;19916;-91
2021/12/07 08:39:08;;;;;;;;;;;3.00;73.20;;;;;;5039074;28;19916;-88
2021/12/07 08:41:34;;;;;;;;;;;3.00;73.20;;;;;;5036952;28;19959;-89
2021/12/07 08:43:59;;;;;;;;;;;3.00;73.10;;;;;;5037839;28;19916;-89
2021/12/07 08:46:25;;;;;;;;;;;3.10;73.00;;;;;;5038468;28;19905;-88
2021/12/07 08:48:50;;;;;;;;;;;3.10;73.00;;;;;;5031403;28;19940;-91
2021/12/07 08:51:16;;;;;;;;;;;3.20;73.00;;;;;;5037544;28;19911;-89
2021/12/07 08:53:52;;;;;;;;;;;3.20;72.90;;;;;;5038010;28;19916;-89
2021/12/07 09:01:48;;;;;;;;;;;3.30;72.70;;;;;;5037796;28;19923;-88
2021/12/07 09:04:17;;;;;;;;;;;3.30;72.70;;;;;;5037517;28;19940;-89
2021/12/07 09:06:50;;;;;;;;;;;3.30;72.60;;;;;;5037122;28;19909;-89
2021/12/07 09:09:16;;;;;;;;;;;3.30;72.60;;;;;;5036843;28;20008;-89
2021/12/07 09:11:43;;;;;;;;;;;3.30;72.50;;;;;;5037783;28;19913;-89
2021/12/07 09:14:10;;;;;;;;;;;3.30;72.50;;;;;;5037497;28;20303;-89
2021/12/07 09:16:42;;;;;;;;;;;3.30;72.30;;;;;;5037301;28;20401;-88
2021/12/07 09:19:07;;;;;;;;;;;3.30;72.30;;;;;;5020364;28;20286;-87
2021/12/07 09:21:33;;;;;;;;;;;3.40;72.40;;;;;;5034897;28;19915;-86
2021/12/07 09:24:01;;;;;;;;;;;3.40;72.40;;;;;;5038284;28;19909;-86
2021/12/07 09:26:26;;;;;;;;;;;3.40;72.30;;;;;;5041022;28;19912;-85
2021/12/07 09:28:52;;;;;;;;;;;3.40;72.20;;;;;;5042135;28;20011;-85
2021/12/07 09:31:17;;;;;;;;;;;3.40;72.20;;;;;;5045393;28;19912;-85
2021/12/07 09:33:43;;;;;;;;;;;3.40;72.00;;;;;;5045458;28;19889;-86
2021/12/07 09:36:10;;;;;;;;;;;3.40;72.10;;;;;;5043585;28;19961;-85
2021/12/07 09:38:36;;;;;;;;;;;3.40;72.00;;;;;;5042850;28;20442;-85
2021/12/07 09:41:02;;;;;;;;;;;3.40;72.00;;;;;;5042611;28;19909;-84
2021/12/07 09:43:31;;;;;;;;;;;3.40;71.90;;;;;;5043465;28;19951;-86
2021/12/07 09:45:57;;;;;;;;;;;3.30;71.90;;;;;;5041972;28;19912;-85
2021/12/07 09:48:24;;;;;;;;;;;3.30;71.90;;;;;;5042230;28;20008;-86
2021/12/07 09:50:51;;;;;;;;;;;3.30;72.00;;;;;;5044112;28;19909;-85
2021/12/07 09:53:18;;;;;;;;;;;3.40;72.00;;;;;;5044401;28;19905;-84
2021/12/07 09:55:45;;;;;;;;;;;3.40;72.00;;;;;;5041491;28;19920;-89
2021/12/07 09:58:11;;;;;;;;;;;3.40;72.00;;;;;;5038478;28;19967;-89
2021/12/07 10:00:37;;;;;;;;;;;3.50;71.80;;;;;;5039322;28;19909;-89
2021/12/07 10:03:03;;;;;;;;;;;3.40;71.80;;;;;;5040518;28;19942;-89
2021/12/07 10:05:30;;;;;;;;;;;3.40;71.80;;;;;;5040888;28;19917;-90
2021/12/07 10:07:56;;;;;;;;;;;3.40;71.80;;;;;;5039714;28;19912;-88
2021/12/07 10:10:23;;;;;;;;;;;3.50;71.80;;;;;;5040536;28;19909;-90
2021/12/07 10:12:49;;;;;;;;;;;3.40;71.80;;;;;;5041080;28;20003;-90
2021/12/07 10:15:16;;;;;;;;;;;3.40;71.70;;;;;;5038717;28;19909;-90
2021/12/07 10:17:42;;;;;;;;;;;3.40;71.70;;;;;;5038422;28;19980;-89
2021/12/07 10:20:31;;;;;;;;;;;3.40;71.70;;;;;;5037656;28;19998;-88
2021/12/07 10:23:02;;;;;;;;;;;3.50;71.80;;;;;;5039603;28;19939;-89
2021/12/07 10:25:27;;;;;;;;;;;3.50;71.80;;;;;;5038232;28;19915;-89
2021/12/07 10:27:55;;;;;;;;;;;3.60;71.80;;;;;;5037442;28;19992;-90
2021/12/07 10:30:21;;;;;;;;;;;3.60;71.80;;;;;;5038487;28;19918;-89
2021/12/07 10:32:57;;;;;;;;;;;3.60;71.60;;;;;;5037919;28;20350;-90
2021/12/07 10:35:35;;;;;;;;;;;3.60;71.50;;;;;;5037282;28;19912;-90
2021/12/07 10:38:12;;;;;;;;;;;3.60;71.50;;;;;;5036839;28;19909;-89
2021/12/07 10:40:57;;;;;;;;;;;3.50;71.50;;;;;;5036624;28;19916;-90
2021/12/07 10:43:41;;;;;;;;;;;3.40;71.50;;;;;;5037188;28;20013;-90
2021/12/07 10:46:25;;;;;;;;;;;3.40;71.60;;;;;;5037287;28;19945;-89
2021/12/07 10:49:06;;;;;;;;;;;3.40;71.40;;;;;;5036692;28;19955;-90
2021/12/07 10:51:31;;;;;;;;;;;3.30;71.50;;;;;;5035852;28;19920;-92
2021/12/07 10:53:57;;;;;;;;;;;3.30;71.60;;;;;;5036413;28;19897;-92
2021/12/07 10:56:33;;;;;;;;;;;3.30;71.60;;;;;;5035764;28;20004;-89
2021/12/07 10:59:04;;;;;;;;;;;3.30;71.70;;;;;;5033411;28;19923;-90
2021/12/07 11:01:31;;;;;;;;;;;3.20;71.70;;;;;;5037308;28;19931;-89
2021/12/07 11:04:16;;;;;;;;;;;3.30;71.70;;;;;;5037315;28;20298;-91
2021/12/07 11:07:00;;;;;;;;;;;3.30;71.70;;;;;;5037789;28;19932;-91
2021/12/07 11:09:26;;;;;;;;;;;3.30;71.80;;;;;;5031649;28;19900;-91
2021/12/07 11:12:05;;;;;;;;;;;3.30;71.80;;;;;;5038886;28;19908;-90
2021/12/07 11:14:38;;;;;;;;;;;3.30;71.70;;;;;;5038346;28;20391;-90
2021/12/07 11:17:03;;;;;;;;;;;3.20;71.80;;;;;;5026729;28;19909;-89
2021/12/07 11:19:29;;;;;;;;;;;3.20;71.80;;;;;;5038208;28;19916;-90
2021/12/07 11:21:55;;;;;;;;;;;3.30;71.90;;;;;;5037021;28;20305;-90
2021/12/07 11:24:20;;;;;;;;;;;3.30;71.90;;;;;;5036317;28;19921;-91
2021/12/07 11:29:40;;;;;;;;;;;3.30;71.80;;;;;;5030524;28;19920;-91
2021/12/07 11:32:07;;;;;;;;;;;3.30;71.80;;;;;;5036854;28;19909;-90
2021/12/07 11:34:40;;;;;;;;;;;3.30;71.70;;;;;;5037896;28;19921;-91
2021/12/07 11:37:07;;;;;;;;;;;3.30;71.70;;;;;;5036742;28;20003;-91
2021/12/07 11:39:38;;;;;;;;;;;3.30;71.80;;;;;;5029045;28;20003;-89
2021/12/07 11:42:07;;;;;;;;;;;3.30;71.80;;;;;;5036992;28;19909;-88
2021/12/07 11:44:33;;;;;;;;;;;3.30;71.80;;;;;;5035998;28;20281;-88
2021/12/07 11:47:00;;;;;;;;;;;3.30;71.70;;;;;;5035392;28;19909;-89
2021/12/07 11:49:26;;;;;;;;;;;3.30;71.70;;;;;;5035416;28;19909;-89
2021/12/07 11:51:53;;;;;;;;;;;3.20;71.70;;;;;;5035520;28;20357;-89
2021/12/07 11:54:21;;;;;;;;;;;3.20;71.80;;;;;;5029376;28;19909;-89
2021/12/07 11:56:47;;;;;;;;;;;3.20;71.80;;;;;;5035041;28;20007;-89
2021/12/07 11:59:12;;;;;;;;;;;3.20;71.80;;;;;;5034952;28;19968;-88
2021/12/07 12:01:38;;;;;;;;;;;3.20;71.80;;;;;;5035747;28;19975;-89
2021/12/07 12:04:04;;;;;;;;;;;3.20;71.80;;;;;;5036214;28;19975;-88
2021/12/07 12:06:30;;;;;;;;;;;3.20;71.80;;;;;;5036241;28;19963;-89
2021/12/07 12:08:56;;;;;;;;;;;3.10;71.80;;;;;;5039227;28;19931;-89
2021/12/07 12:11:24;;;;;;;;;;;3.10;71.90;;;;;;5040216;28;19960;-88
2021/12/07 12:13:55;;;;;;;;;;;3.10;71.90;;;;;;5038980;28;20392;-86
2021/12/07 12:16:25;;;;;;;;;;;3.10;71.90;;;;;;5037936;28;20203;-84
2021/12/07 12:19:17;;;;;;;;;;;3.10;71.90;;;;;;5030172;28;19909;-85
2021/12/07 12:21:43;;;;;;;;;;;3.10;71.90;;;;;;4997925;28;19958;-84
2021/12/07 12:24:27;;;;;;;;;;;3.10;71.90;;;;;;5034983;28;19917;-82
2021/12/07 12:27:09;;;;;;;;;;;3.10;72.00;;;;;;5035783;28;19934;-84
2021/12/07 12:29:36;;;;;;;;;;;3.10;72.00;;;;;;5030819;28;20349;-84
2021/12/07 12:32:02;;;;;;;;;;;3.00;72.00;;;;;;5036178;28;19909;-84
2021/12/07 12:34:29;;;;;;;;;;;3.00;72.00;;;;;;5034609;28;19988;-84
2021/12/07 12:37:14;;;;;;;;;;;3.00;72.00;;;;;;5035400;28;19910;-84
2021/12/07 12:39:59;;;;;;;;;;;3.00;72.00;;;;;;5034450;28;19909;-82
2021/12/07 12:42:26;;;;;;;;;;;3.00;72.10;;;;;;5035065;28;20035;-83
2021/12/07 12:45:01;;;;;;;;;;;2.90;72.10;;;;;;5034841;28;19916;-81
2021/12/07 12:47:31;;;;;;;;;;;2.90;72.10;;;;;;5037433;28;19905;-83
2021/12/07 12:50:08;;;;;;;;;;;2.90;72.10;;;;;;5036868;28;19999;-84
2021/12/07 12:52:45;;;;;;;;;;;2.90;72.20;;;;;;5035892;28;20048;-84
2021/12/07 12:55:27;;;;;;;;;;;2.90;72.20;;;;;;5035798;28;20298;-84
2021/12/07 12:57:53;;;;;;;;;;;2.80;72.20;;;;;;5035421;28;19909;-82
2021/12/07 13:00:19;;;;;;;;;;;2.80;72.20;;;;;;5035521;28;19966;-83
2021/12/07 13:02:52;;;;;;;;;;;2.80;72.30;;;;;;5035184;28;20014;-83
2021/12/07 13:05:32;;;;;;;;;;;2.80;72.30;;;;;;5035226;28;19952;-83
2021/12/07 13:08:17;;;;;;;;;;;2.80;72.40;;;;;;5035117;28;20366;-88
2021/12/07 13:10:57;;;;;;;;;;;2.80;72.30;;;;;;5033137;28;20007;-85
2021/12/07 13:13:23;;;;;;;;;;;2.80;72.30;;;;;;5034632;28;20048;-83
2021/12/07 13:15:49;;;;;;;;;;;2.80;72.20;;;;;;5034052;28;20370;-86
2021/12/07 13:18:19;;;;;;;;;;;2.80;72.30;;;;;;5035735;28;19919;-86
2021/12/07 13:20:45;;;;;;;;;;;2.80;72.30;;;;;;5033387;28;19952;-85
2021/12/07 13:23:12;;;;;;;;;;;2.80;72.40;;;;;;5035652;28;19948;-90
2021/12/07 13:25:46;;;;;;;;;;;2.70;72.40;;;;;;5041653;28;19959;-91
2021/12/07 13:28:17;;;;;;;;;;;2.70;72.40;;;;;;5046758;28;19913;-91
2021/12/07 13:30:49;;;;;;;;;;;2.70;72.40;;;;;;5037729;28;19912;-89
2021/12/07 13:33:19;;;;;;;;;;;2.70;72.50;;;;;;5044248;28;19913;-91
2021/12/07 13:35:45;;;;;;;;;;;2.70;72.50;;;;;;5038238;28;20276;-90
2021/12/07 13:38:24;;;;;;;;;;;2.70;72.50;;;;;;5038731;28;19905;-90
2021/12/07 13:40:51;;;;;;;;;;;2.60;72.50;;;;;;5037702;28;20345;-89
2021/12/07 13:43:30;;;;;;;;;;;2.60;72.60;;;;;;5037173;28;19928;-89
2021/12/07 13:46:15;;;;;;;;;;;2.50;72.60;;;;;;5037722;28;19905;-91
2021/12/07 13:48:42;;;;;;;;;;;2.60;72.80;;;;;;5032315;28;19909;-89
2021/12/07 13:51:08;;;;;;;;;;;2.50;72.80;;;;;;5040373;28;20057;-92
2021/12/07 13:53:35;;;;;;;;;;;2.50;72.80;;;;;;5039794;28;19909;-91
2021/12/07 13:56:00;;;;;;;;;;;2.50;72.90;;;;;;5041464;28;19913;-91
2021/12/07 13:58:26;;;;;;;;;;;2.50;73.00;;;;;;5040214;28;19986;-91
2021/12/07 14:00:51;;;;;;;;;;;2.40;73.00;;;;;;5039327;28;19940;-91
2021/12/07 14:03:19;;;;;;;;;;;2.40;73.10;;;;;;5040635;28;19909;-91
2021/12/07 14:05:45;;;;;;;;;;;2.40;73.10;;;;;;5041533;28;19909;-92
2021/12/07 14:08:12;;;;;;;;;;;2.40;73.10;;;;;;5042276;28;19909;-91
2021/12/07 14:10:42;;;;;;;;;;;2.40;73.20;;;;;;5039908;28;19901;-90
2021/12/07 14:13:08;;;;;;;;;;;2.40;73.20;;;;;;5024721;28;19919;-90
2021/12/07 14:15:37;;;;;;;;;;;2.40;73.20;;;;;;5040348;28;19928;-89
2021/12/07 14:18:10;;;;;;;;;;;2.40;73.20;;;;;;5038446;28;19944;-90
2021/12/07 14:20:38;;;;;;;;;;;2.40;73.20;;;;;;5039692;28;19909;-91
2021/12/07 14:23:22;;;;;;;;;;;2.40;73.30;;;;;;5041845;28;20354;-91
2021/12/07 14:25:57;;;;;;;;;;;2.40;73.30;;;;;;5042675;28;19909;-90
2021/12/07 14:28:33;;;;;;;;;;;2.30;73.40;;;;;;5037737;28;20015;-90
2021/12/07 14:30:59;;;;;;;;;;;2.30;73.50;;;;;;5042653;28;20000;-90
2021/12/07 14:33:24;;;;;;;;;;;2.30;73.60;;;;;;5039872;28;19968;-91
2021/12/07 14:35:50;;;;;;;;;;;2.30;73.70;;;;;;5041041;28;19925;-92
2021/12/07 14:38:15;;;;;;;;;;;2.30;73.70;;;;;;5039919;28;19909;-90
2021/12/07 14:40:44;;;;;;;;;;;2.20;73.70;;;;;;5039889;28;19980;-90
2021/12/07 14:43:10;;;;;;;;;;;2.20;73.80;;;;;;5039916;28;20281;-90
2021/12/07 14:45:36;;;;;;;;;;;2.20;73.80;;;;;;5040593;28;19915;-91
2021/12/07 14:48:02;;;;;;;;;;;2.20;73.90;;;;;;5041353;28;20384;-91
2021/12/07 14:50:27;;;;;;;;;;;2.20;73.90;;;;;;5041004;28;19909;-91
2021/12/07 14:52:53;;;;;;;;;;;2.20;73.90;;;;;;5039682;28;19935;-91
2021/12/07 14:55:18;;;;;;;;;;;2.20;74.00;;;;;;5038949;28;19917;-91
2021/12/07 14:57:44;;;;;;;;;;;2.20;74.00;;;;;;5039805;28;19909;-91
2021/12/07 15:00:09;;;;;;;;;;;2.20;74.10;;;;;;5040449;28;19928;-91
2021/12/07 15:02:36;;;;;;;;;;;2.20;74.00;;;;;;5040609;28;19909;-90
2021/12/07 15:05:05;;;;;;;;;;;2.20;74.10;;;;;;5039713;28;20342;-90
2021/12/07 15:07:32;;;;;;;;;;;2.10;74.10;;;;;;5039192;28;19955;-90
2021/12/07 15:10:03;;;;;;;;;;;2.20;74.20;;;;;;5040288;28;20254;-89
2021/12/07 15:12:29;;;;;;;;;;;2.10;74.20;;;;;;5038199;28;19913;-90
2021/12/07 15:14:55;;;;;;;;;;;2.10;74.20;;;;;;5036542;28;19967;-90
2021/12/07 15:17:20;;;;;;;;;;;2.10;74.20;;;;;;5038137;28;19909;-91
2021/12/07 15:19:46;;;;;;;;;;;2.10;74.30;;;;;;5037934;28;19909;-92
2021/12/07 15:22:13;;;;;;;;;;;2.10;74.30;;;;;;5037697;28;19941;-91
2021/12/07 15:24:39;;;;;;;;;;;2.20;74.30;;;;;;5038036;28;19913;-91
2021/12/07 15:27:05;;;;;;;;;;;2.10;74.20;;;;;;5039451;28;19916;-91
2021/12/07 15:29:32;;;;;;;;;;;2.20;74.30;;;;;;5038070;28;19916;-90
2021/12/07 15:32:03;;;;;;;;;;;2.20;74.20;;;;;;5037854;28;20324;-91
2021/12/07 15:34:30;;;;;;;;;;;2.20;74.20;;;;;;5037872;28;19975;-91
2021/12/07 15:37:00;;;;;;;;;;;2.20;74.20;;;;;;5037800;28;20266;-90
2021/12/07 15:39:31;;;;;;;;;;;2.20;74.20;;;;;;5038632;28;20361;-91
2021/12/07 15:42:00;;;;;;;;;;;2.20;74.20;;;;;;5039629;28;20366;-91
2021/12/07 15:44:38;;;;;;;;;;;2.10;74.30;;;;;;5040835;28;20342;-90
2021/12/07 15:47:08;;;;;;;;;;;2.10;74.40;;;;;;5042550;28;19953;-90
2021/12/07 15:49:34;;;;;;;;;;;2.10;74.40;;;;;;5041763;28;19913;-89
2021/12/07 15:52:02;;;;;;;;;;;2.10;74.40;;;;;;5043973;28;19985;-90
2021/12/07 15:54:30;;;;;;;;;;;2.10;74.40;;;;;;5072927;22;19925;-89
2021/12/07 15:57:04;;;;;;;;;;;2.10;74.50;;;;;;5048768;28;19913;-89
2021/12/07 15:59:33;;;;;;;;;;;2.10;74.50;;;;;;5057809;28;20349;-90
2021/12/07 16:01:59;;;;;;;;;;;2.10;74.50;;;;;;5052339;28;20393;-88
2021/12/07 16:04:26;;;;;;;;;;;2.10;74.50;;;;;;5049827;28;19909;-89
2021/12/07 16:06:52;;;;;;;;;;;2.10;74.50;;;;;;5045163;28;19996;-85